Terminal Aerodrome Forecast
Issued by NWS

Home | Current Version | Previous Version | Text Only | Print | Product List | Glossary On
Versions: 1 2 3 4 5 6 7 8 9 10 11 12 13
207
FTUS43 KILX 240429 AAA
TAFBMI
TAF AMD
KBMI 240429Z 2404/2424 17011KT P6SM SCT020
      TEMPO 2404/2407 BKN020
     FM240800 18012KT 4SM -SHRA BR VCTS SCT015 OVC025CB
     FM241600 22012KT P6SM BKN025
     FM242100 21014KT P6SM BKN035 PROB30 2422/2424 4SM TSRA
      BKN025CB=

USA.gov is the U.S. government's official web portal to all federal, state and local government web resources and services.